Time;durP1;ratioP1;P1;durP2;ratioP2;P2;SDS_P1;SDS_P2;PMS_P1;PMS_P2;Temp;Humidity;BMP_temperature;BMP_pressure;BME280_temperature;BME280_humidity;BME280_pressure;Samples;Min_cycle;Max_cycle;Signal;HPM_P1;HPM_P2
2021/05/20 00:02:17;;;;;;;4.17;3.87;;;;;;;;;;4987069;28;20175;-84
2021/05/20 00:04:43;;;;;;;4.87;4.03;;;;;;;;;;4988732;28;20920;-84
2021/05/20 00:07:10;;;;;;;3.90;3.60;;;;;;;;;;4996068;28;20663;-84
2021/05/20 00:09:36;;;;;;;4.57;3.80;;;;;;;;;;4982910;28;20203;-84
2021/05/20 00:12:02;;;;;;;5.20;4.23;;;;;;;;;;5019506;28;20266;-84
2021/05/20 00:14:28;;;;;;;4.43;3.97;;;;;;;;;;5023868;28;20198;-85
2021/05/20 00:16:55;;;;;;;4.70;4.30;;;;;;;;;;4981503;28;20540;-84
2021/05/20 00:19:21;;;;;;;4.50;4.20;;;;;;;;;;5005714;28;20278;-84
2021/05/20 00:21:47;;;;;;;5.20;4.70;;;;;;;;;;4976769;28;20191;-84
2021/05/20 00:24:13;;;;;;;4.90;4.50;;;;;;;;;;4977752;28;20180;-84
2021/05/20 00:26:39;;;;;;;4.67;4.27;;;;;;;;;;4977156;28;20255;-84
2021/05/20 00:29:05;;;;;;;4.30;3.90;;;;;;;;;;4975530;28;20184;-84
2021/05/20 00:31:31;;;;;;;4.83;4.43;;;;;;;;;;5018868;28;20257;-84
2021/05/20 00:33:57;;;;;;;5.00;4.60;;;;;;;;;;4974542;28;20234;-84
2021/05/20 00:36:23;;;;;;;4.53;4.13;;;;;;;;;;5007299;28;20191;-84
2021/05/20 00:38:49;;;;;;;4.40;4.00;;;;;;;;;;4972407;28;20191;-84
2021/05/20 00:41:15;;;;;;;4.37;4.00;;;;;;;;;;4977142;28;20200;-84
2021/05/20 00:43:41;;;;;;;4.63;4.23;;;;;;;;;;5034877;28;20305;-84
2021/05/20 00:46:08;;;;;;;4.40;4.00;;;;;;;;;;4975040;28;20204;-84
2021/05/20 00:48:34;;;;;;;6.70;5.20;;;;;;;;;;5021624;28;20205;-84
2021/05/20 00:51:01;;;;;;;4.70;4.30;;;;;;;;;;4980371;28;20180;-84
2021/05/20 00:53:27;;;;;;;5.03;4.60;;;;;;;;;;5071176;28;20184;-84
2021/05/20 00:55:53;;;;;;;4.70;4.30;;;;;;;;;;5029718;28;20181;-84
2021/05/20 00:58:20;;;;;;;5.40;4.90;;;;;;;;;;4977530;28;20184;-84
2021/05/20 01:00:49;;;;;;;5.00;4.60;;;;;;;;;;5017406;28;20566;-84
2021/05/20 01:03:15;;;;;;;4.67;4.27;;;;;;;;;;4988662;28;20313;-84
2021/05/20 01:05:41;;;;;;;5.17;4.77;;;;;;;;;;4985666;28;20661;-84
2021/05/20 01:08:07;;;;;;;5.03;4.60;;;;;;;;;;4998066;28;20265;-84
2021/05/20 01:10:33;;;;;;;5.70;5.20;;;;;;;;;;4975178;28;20180;-84
2021/05/20 01:12:59;;;;;;;5.47;4.97;;;;;;;;;;5019811;28;20184;-84
2021/05/20 01:15:27;;;;;;;5.13;4.63;;;;;;;;;;5004167;28;20218;-84
2021/05/20 01:17:55;;;;;;;4.90;4.50;;;;;;;;;;5013424;28;20589;-84
2021/05/20 01:20:25;;;;;;;5.57;5.07;;;;;;;;;;4973197;28;20203;-84
2021/05/20 01:22:51;;;;;;;5.53;5.03;;;;;;;;;;5003499;28;20187;-84
2021/05/20 01:25:18;;;;;;;4.87;4.47;;;;;;;;;;4973540;28;20176;-84
2021/05/20 01:27:44;;;;;;;4.87;4.47;;;;;;;;;;5007768;28;20236;-84
2021/05/20 01:30:11;;;;;;;6.40;5.23;;;;;;;;;;5019994;28;20187;-84
2021/05/20 01:32:37;;;;;;;5.83;5.33;;;;;;;;;;4989341;28;20639;-84
2021/05/20 01:35:04;;;;;;;5.03;4.53;;;;;;;;;;5004698;28;20222;-84
2021/05/20 01:37:32;;;;;;;5.37;4.87;;;;;;;;;;4981533;28;20573;-84
2021/05/20 01:39:59;;;;;;;6.00;5.40;;;;;;;;;;4973837;28;20203;-84
2021/05/20 01:42:25;;;;;;;5.13;4.73;;;;;;;;;;4978758;28;20645;-84
2021/05/20 01:44:53;;;;;;;4.97;4.57;;;;;;;;;;5005145;28;20196;-84
2021/05/20 01:47:19;;;;;;;5.67;5.17;;;;;;;;;;4979466;28;20276;-84
2021/05/20 01:49:50;;;;;;;5.63;5.13;;;;;;;;;;5005739;28;20183;-84
2021/05/20 01:52:17;;;;;;;5.07;4.63;;;;;;;;;;4988120;28;20198;-84
2021/05/20 01:54:43;;;;;;;4.87;4.47;;;;;;;;;;4992705;28;20191;-84
2021/05/20 01:57:09;;;;;;;6.00;5.50;;;;;;;;;;4977370;28;20184;-84
2021/05/20 01:59:35;;;;;;;6.47;5.90;;;;;;;;;;5013274;28;20214;-84
2021/05/20 02:02:01;;;;;;;5.53;5.03;;;;;;;;;;5028886;28;20172;-84
2021/05/20 02:04:27;;;;;;;5.70;5.20;;;;;;;;;;5035116;28;20172;-87
2021/05/20 02:06:53;;;;;;;5.77;5.27;;;;;;;;;;4993350;28;20180;-84
2021/05/20 02:09:19;;;;;;;5.60;5.10;;;;;;;;;;4978420;28;20172;-84
2021/05/20 02:11:45;;;;;;;5.87;5.47;;;;;;;;;;4977971;28;20172;-83
2021/05/20 02:14:11;;;;;;;5.90;5.40;;;;;;;;;;5004536;28;20329;-84
2021/05/20 02:16:37;;;;;;;6.03;5.50;;;;;;;;;;5001210;28;20526;-83
2021/05/20 02:19:03;;;;;;;5.80;5.30;;;;;;;;;;5059126;28;20249;-83
2021/05/20 02:21:29;;;;;;;7.37;5.67;;;;;;;;;;4998781;28;20215;-84
2021/05/20 02:23:55;;;;;;;5.90;5.40;;;;;;;;;;5053054;28;20241;-83
2021/05/20 02:26:22;;;;;;;5.77;5.27;;;;;;;;;;4985847;28;20180;-83
2021/05/20 02:28:48;;;;;;;5.93;5.43;;;;;;;;;;4984936;28;20706;-83
2021/05/20 02:31:14;;;;;;;5.47;5.03;;;;;;;;;;4987651;28;20301;-83
2021/05/20 02:33:40;;;;;;;6.37;5.87;;;;;;;;;;4971516;28;20273;-83
2021/05/20 02:36:06;;;;;;;5.97;5.47;;;;;;;;;;5014274;28;20216;-84
2021/05/20 02:38:32;;;;;;;5.90;5.40;;;;;;;;;;4976577;28;20606;-84
2021/05/20 02:40:58;;;;;;;5.67;5.17;;;;;;;;;;5003458;28;20208;-83
2021/05/20 02:43:25;;;;;;;5.47;5.03;;;;;;;;;;5035770;28;20181;-84
2021/05/20 02:45:52;;;;;;;5.67;5.17;;;;;;;;;;5024220;28;20271;-84
2021/05/20 02:48:18;;;;;;;6.27;5.77;;;;;;;;;;4978422;28;20196;-84
2021/05/20 02:50:44;;;;;;;7.67;5.67;;;;;;;;;;5005724;28;20187;-83
2021/05/20 02:53:10;;;;;;;6.20;5.67;;;;;;;;;;5003053;28;20184;-83
2021/05/20 02:55:36;;;;;;;5.73;5.23;;;;;;;;;;5008649;28;20257;-83
2021/05/20 02:58:03;;;;;;;6.27;5.67;;;;;;;;;;5030505;28;20665;-83
2021/05/20 03:00:34;;;;;;;6.10;5.60;;;;;;;;;;4978225;28;20206;-83
2021/05/20 03:03:00;;;;;;;5.30;4.90;;;;;;;;;;4985215;28;20543;-84
2021/05/20 03:05:26;;;;;;;6.53;5.93;;;;;;;;;;4992506;28;20180;-83
2021/05/20 03:07:56;;;;;;;5.93;5.43;;;;;;;;;;4985068;28;20533;-83
2021/05/20 03:10:22;;;;;;;6.87;6.27;;;;;;;;;;5012042;28;20199;-84
2021/05/20 03:12:48;;;;;;;6.27;5.73;;;;;;;;;;4979784;28;20180;-84
2021/05/20 03:15:14;;;;;;;7.73;5.83;;;;;;;;;;4986220;28;20455;-84
2021/05/20 03:17:40;;;;;;;6.40;5.87;;;;;;;;;;4973280;28;20191;-83
2021/05/20 03:20:07;;;;;;;6.50;5.90;;;;;;;;;;5003816;28;20306;-83
2021/05/20 03:22:34;;;;;;;6.33;5.83;;;;;;;;;;4969556;28;20279;-83
2021/05/20 03:25:00;;;;;;;6.60;6.00;;;;;;;;;;4970768;28;20271;-84
2021/05/20 03:27:26;;;;;;;6.03;5.53;;;;;;;;;;4981698;28;20172;-84
2021/05/20 03:29:52;;;;;;;6.80;6.20;;;;;;;;;;5032258;28;20184;-83
2021/05/20 03:32:18;;;;;;;7.03;6.43;;;;;;;;;;4969453;28;20622;-83
2021/05/20 03:34:44;;;;;;;6.43;5.93;;;;;;;;;;4966429;28;20219;-83
2021/05/20 03:37:10;;;;;;;6.03;5.53;;;;;;;;;;4976621;28;20184;-83
2021/05/20 03:39:36;;;;;;;6.70;6.07;;;;;;;;;;5003046;28;20187;-84
2021/05/20 03:42:03;;;;;;;6.57;5.97;;;;;;;;;;4983293;28;20358;-83
2021/05/20 03:44:30;;;;;;;6.97;6.37;;;;;;;;;;4985251;28;20180;-83
2021/05/20 03:46:56;;;;;;;6.33;5.83;;;;;;;;;;5019783;28;20181;-84
2021/05/20 03:49:22;;;;;;;6.40;5.90;;;;;;;;;;5007635;28;20172;-84
2021/05/20 03:51:49;;;;;;;7.07;6.50;;;;;;;;;;5005041;28;20180;-83
2021/05/20 03:54:15;;;;;;;6.13;5.53;;;;;;;;;;4980454;28;20184;-83
2021/05/20 03:56:41;;;;;;;6.30;5.70;;;;;;;;;;4973869;28;20282;-83
2021/05/20 03:59:07;;;;;;;7.77;7.07;;;;;;;;;;5004377;28;20240;-83
2021/05/20 04:01:33;;;;;;;7.53;6.83;;;;;;;;;;4973575;28;20238;-83
2021/05/20 04:03:59;;;;;;;7.40;6.77;;;;;;;;;;5005774;28;20180;-83
2021/05/20 04:06:25;;;;;;;7.13;6.53;;;;;;;;;;5029108;28;20201;-84
2021/05/20 04:08:51;;;;;;;6.47;5.87;;;;;;;;;;4969431;28;20188;-83
2021/05/20 04:11:17;;;;;;;7.43;6.73;;;;;;;;;;5004415;28;20184;-84
2021/05/20 04:13:44;;;;;;;7.27;6.67;;;;;;;;;;4972499;28;20515;-84
2021/05/20 04:16:14;;;;;;;7.53;6.93;;;;;;;;;;5027981;28;20731;-83
2021/05/20 04:18:41;;;;;;;7.93;7.23;;;;;;;;;;5019006;28;20195;-83
2021/05/20 04:21:07;;;;;;;8.23;7.53;;;;;;;;;;5016787;28;20261;-83
2021/05/20 04:23:33;;;;;;;7.37;6.67;;;;;;;;;;4993220;28;20250;-83
2021/05/20 04:25:59;;;;;;;7.57;6.90;;;;;;;;;;4978845;28;20172;-83
2021/05/20 04:28:26;;;;;;;8.10;7.40;;;;;;;;;;4973196;28;20249;-83
2021/05/20 04:30:52;;;;;;;7.33;6.73;;;;;;;;;;4985033;28;20188;-84
2021/05/20 04:33:18;;;;;;;8.43;7.63;;;;;;;;;;4983177;28;20270;-83
2021/05/20 04:35:44;;;;;;;8.57;7.77;;;;;;;;;;5015802;28;20288;-83
2021/05/20 04:38:10;;;;;;;8.17;7.43;;;;;;;;;;5023427;28;20187;-83
2021/05/20 04:40:37;;;;;;;9.27;8.47;;;;;;;;;;4973511;28;20196;-83
2021/05/20 04:43:03;;;;;;;10.17;9.10;;;;;;;;;;4974031;28;20187;-83
2021/05/20 04:45:29;;;;;;;9.03;8.23;;;;;;;;;;4972910;28;20191;-84
2021/05/20 04:47:55;;;;;;;13.20;11.90;;;;;;;;;;4972881;28;20390;-84
2021/05/20 04:50:22;;;;;;;10.50;9.40;;;;;;;;;;4973254;28;20189;-83
2021/05/20 04:52:48;;;;;;;10.07;8.93;;;;;;;;;;4971189;28;20190;-83
2021/05/20 04:55:15;;;;;;;10.67;9.57;;;;;;;;;;4970016;28;20184;-83
2021/05/20 04:57:41;;;;;;;11.27;10.17;;;;;;;;;;4972368;28;20313;-83
2021/05/20 05:00:09;;;;;;;10.37;9.37;;;;;;;;;;4999152;28;20223;-83
2021/05/20 05:02:35;;;;;;;10.87;9.77;;;;;;;;;;4973846;28;20191;-83
2021/05/20 05:05:01;;;;;;;11.07;9.97;;;;;;;;;;4972678;28;20180;-83
2021/05/20 05:07:27;;;;;;;10.13;9.10;;;;;;;;;;5000627;28;20263;-84
2021/05/20 05:09:53;;;;;;;11.87;9.57;;;;;;;;;;5025328;28;20211;-84
2021/05/20 05:12:19;;;;;;;12.07;10.43;;;;;;;;;;4970472;28;20634;-83
2021/05/20 05:14:46;;;;;;;11.33;10.03;;;;;;;;;;4972682;28;20173;-83
2021/05/20 05:17:12;;;;;;;11.20;10.03;;;;;;;;;;4971302;28;20230;-83
2021/05/20 05:19:38;;;;;;;13.67;12.17;;;;;;;;;;4972665;28;20180;-84
2021/05/20 05:22:04;;;;;;;16.17;12.27;;;;;;;;;;4970788;28;20643;-84
2021/05/20 05:24:31;;;;;;;14.90;13.30;;;;;;;;;;4956049;28;20534;-83
2021/05/20 05:26:57;;;;;;;14.43;12.40;;;;;;;;;;5008430;28;20188;-83
2021/05/20 05:29:23;;;;;;;18.47;14.10;;;;;;;;;;4978587;28;20184;-83
2021/05/20 05:31:49;;;;;;;18.27;14.10;;;;;;;;;;4968881;28;20180;-84
2021/05/20 05:34:16;;;;;;;16.10;13.23;;;;;;;;;;4970407;28;20531;-83
2021/05/20 05:36:42;;;;;;;20.37;16.03;;;;;;;;;;4969822;28;20283;-83
2021/05/20 05:39:08;;;;;;;19.67;14.40;;;;;;;;;;4951407;29;20192;-83
2021/05/20 05:41:34;;;;;;;21.33;16.57;;;;;;;;;;4956746;28;20200;-83
2021/05/20 05:44:00;;;;;;;22.13;16.73;;;;;;;;;;4956370;28;20268;-83
2021/05/20 05:46:26;;;;;;;26.20;17.67;;;;;;;;;;4975311;28;20253;-83
2021/05/20 05:48:53;;;;;;;25.27;19.07;;;;;;;;;;4971761;28;20180;-83
2021/05/20 05:51:21;;;;;;;26.67;19.67;;;;;;;;;;4961519;28;20184;-82
2021/05/20 05:53:48;;;;;;;26.20;20.17;;;;;;;;;;4961527;28;20192;-83
2021/05/20 05:56:14;;;;;;;30.20;22.23;;;;;;;;;;4987472;28;20234;-82
2021/05/20 05:58:40;;;;;;;37.17;23.80;;;;;;;;;;4953320;28;20219;-82
2021/05/20 06:01:06;;;;;;;40.17;25.40;;;;;;;;;;5025235;28;20210;-83
2021/05/20 06:03:33;;;;;;;36.03;24.30;;;;;;;;;;5075153;28;20211;-82
2021/05/20 06:05:59;;;;;;;39.00;25.17;;;;;;;;;;4968405;28;20203;-82
2021/05/20 06:08:26;;;;;;;39.97;26.97;;;;;;;;;;4971567;28;20180;-82
2021/05/20 06:10:52;;;;;;;43.27;27.03;;;;;;;;;;4973109;28;20687;-82
2021/05/20 06:13:18;;;;;;;36.97;25.73;;;;;;;;;;4971654;28;20183;-81
2021/05/20 06:15:45;;;;;;;38.83;25.47;;;;;;;;;;4970799;28;20231;-82
2021/05/20 06:18:11;;;;;;;41.77;26.97;;;;;;;;;;4975381;28;20175;-82
2021/05/20 06:20:37;;;;;;;39.13;25.80;;;;;;;;;;4984145;28;20212;-81
2021/05/20 06:23:03;;;;;;;35.70;25.00;;;;;;;;;;4970500;28;20180;-82
2021/05/20 06:25:29;;;;;;;40.97;26.90;;;;;;;;;;4971444;28;20183;-82
2021/05/20 06:27:55;;;;;;;36.50;25.20;;;;;;;;;;4972904;28;20179;-82
2021/05/20 06:30:22;;;;;;;37.27;26.50;;;;;;;;;;4971248;28;20232;-82
2021/05/20 06:32:48;;;;;;;37.97;25.73;;;;;;;;;;4968580;28;20209;-82
2021/05/20 06:35:14;;;;;;;36.60;25.07;;;;;;;;;;4956495;28;20194;-81
2021/05/20 06:37:42;;;;;;;36.17;24.37;;;;;;;;;;4970510;28;20188;-82
2021/05/20 06:40:09;;;;;;;37.90;24.97;;;;;;;;;;4971463;28;20214;-82
2021/05/20 06:42:35;;;;;;;35.27;23.87;;;;;;;;;;4971300;28;20737;-83
2021/05/20 06:45:01;;;;;;;35.10;25.40;;;;;;;;;;4970881;28;20208;-83
2021/05/20 06:47:27;;;;;;;36.57;23.97;;;;;;;;;;4971192;28;20176;-83
2021/05/20 06:49:53;;;;;;;31.53;22.33;;;;;;;;;;4971458;28;20188;-82
2021/05/20 06:52:19;;;;;;;30.27;22.33;;;;;;;;;;4970914;28;20195;-83
2021/05/20 06:54:45;;;;;;;29.83;22.13;;;;;;;;;;4971027;28;20568;-83
2021/05/20 06:57:24;;;;;;;31.33;23.73;;;;;;;;;;4967649;28;20207;-83
2021/05/20 06:59:57;;;;;;;27.50;21.27;;;;;;;;;;4985361;28;20226;-83
2021/05/20 07:02:23;;;;;;;28.63;20.83;;;;;;;;;;4959688;28;20194;-82
2021/05/20 07:04:49;;;;;;;27.63;21.57;;;;;;;;;;4952395;28;20187;-81
2021/05/20 07:07:15;;;;;;;32.53;23.23;;;;;;;;;;4970344;28;20717;-82
2021/05/20 07:09:41;;;;;;;27.60;20.60;;;;;;;;;;4970676;28;20186;-82
2021/05/20 07:12:08;;;;;;;29.27;21.33;;;;;;;;;;5053845;28;20183;-82
2021/05/20 07:14:34;;;;;;;27.97;19.90;;;;;;;;;;4971683;28;20178;-82
2021/05/20 07:17:00;;;;;;;28.17;21.17;;;;;;;;;;4963722;28;20234;-83
2021/05/20 07:19:26;;;;;;;27.17;21.27;;;;;;;;;;4970112;28;20551;-82
2021/05/20 07:21:52;;;;;;;27.93;21.30;;;;;;;;;;4972630;28;20227;-82
2021/05/20 07:24:19;;;;;;;27.43;20.13;;;;;;;;;;4969523;28;20664;-82
2021/05/20 07:26:45;;;;;;;24.13;19.73;;;;;;;;;;4975093;28;20248;-83
2021/05/20 07:29:11;;;;;;;24.57;19.07;;;;;;;;;;4970946;28;20180;-82
2021/05/20 07:31:38;;;;;;;26.23;18.80;;;;;;;;;;4963599;28;20231;-82
2021/05/20 07:34:04;;;;;;;24.47;19.67;;;;;;;;;;4965992;28;20188;-82
2021/05/20 07:36:30;;;;;;;25.43;20.67;;;;;;;;;;4973182;28;20180;-82
2021/05/20 07:38:56;;;;;;;24.97;19.97;;;;;;;;;;4971484;28;20324;-82
2021/05/20 07:41:23;;;;;;;29.83;20.03;;;;;;;;;;4971283;28;20227;-82
2021/05/20 07:43:49;;;;;;;27.40;20.80;;;;;;;;;;4964562;28;20276;-82
2021/05/20 07:46:15;;;;;;;24.83;19.97;;;;;;;;;;4967738;28;20211;-82
2021/05/20 07:48:41;;;;;;;26.83;20.53;;;;;;;;;;4964751;28;20195;-83
2021/05/20 07:51:09;;;;;;;24.90;20.27;;;;;;;;;;5020215;28;20176;-82
2021/05/20 07:53:35;;;;;;;27.23;18.77;;;;;;;;;;5071375;28;20211;-82
2021/05/20 07:56:01;;;;;;;29.10;20.57;;;;;;;;;;5017191;28;20184;-82
2021/05/20 07:58:28;;;;;;;30.60;21.97;;;;;;;;;;4972099;28;20175;-82
2021/05/20 08:00:55;;;;;;;27.03;21.10;;;;;;;;;;4972569;28;20579;-82
2021/05/20 08:03:27;;;;;;;26.93;21.03;;;;;;;;;;4971084;28;20184;-83
2021/05/20 08:10:52;;;;;;;43.13;30.07;;;;;;;;;;4971824;28;20177;-79
2021/05/20 08:13:18;;;;;;;46.27;32.23;;;;;;;;;;4962508;28;20293;-81
2021/05/20 08:15:45;;;;;;;41.57;29.43;;;;;;;;;;4960032;28;20227;-82
2021/05/20 08:18:11;;;;;;;36.83;27.37;;;;;;;;;;4965401;28;20210;-82
2021/05/20 08:20:37;;;;;;;42.53;28.70;;;;;;;;;;4963332;28;20255;-82
2021/05/20 08:23:04;;;;;;;39.67;27.60;;;;;;;;;;4969137;28;20244;-82
2021/05/20 08:25:30;;;;;;;38.53;27.00;;;;;;;;;;4969458;28;20611;-82
2021/05/20 08:27:56;;;;;;;35.27;26.17;;;;;;;;;;4969091;28;20206;-82
2021/05/20 08:30:22;;;;;;;33.27;26.20;;;;;;;;;;4979114;28;20190;-82
2021/05/20 08:32:49;;;;;;;36.03;26.23;;;;;;;;;;4973722;28;20180;-82
2021/05/20 08:35:15;;;;;;;36.73;25.73;;;;;;;;;;4974732;28;20269;-82
2021/05/20 08:37:41;;;;;;;33.20;24.87;;;;;;;;;;4961281;28;20293;-82
2021/05/20 08:40:08;;;;;;;37.07;26.63;;;;;;;;;;4966489;28;20195;-82
2021/05/20 08:42:35;;;;;;;35.17;24.50;;;;;;;;;;4969124;28;20203;-82
2021/05/20 08:45:08;;;;;;;37.60;26.80;;;;;;;;;;4959125;28;20204;-82
2021/05/20 08:47:34;;;;;;;36.77;24.10;;;;;;;;;;4977340;28;20547;-82
2021/05/20 08:50:00;;;;;;;35.60;24.73;;;;;;;;;;4966624;28;20265;-82
2021/05/20 08:52:26;;;;;;;32.93;23.67;;;;;;;;;;4972827;28;20223;-82
2021/05/20 08:54:53;;;;;;;33.80;25.80;;;;;;;;;;4955004;28;20612;-82
2021/05/20 08:57:25;;;;;;;31.20;23.70;;;;;;;;;;4965225;28;20188;-82
2021/05/20 08:59:51;;;;;;;32.13;23.10;;;;;;;;;;4971608;28;20203;-82
2021/05/20 09:02:35;;;;;;;29.83;22.83;;;;;;;;;;4972393;28;20172;-82
2021/05/20 09:05:03;;;;;;;30.43;24.50;;;;;;;;;;4970713;28;20192;-80
2021/05/20 09:07:31;;;;;;;30.27;22.77;;;;;;;;;;4969767;28;20180;-79
2021/05/20 09:10:17;;;;;;;31.77;22.97;;;;;;;;;;4980871;28;20203;-80
2021/05/20 09:12:43;;;;;;;29.73;23.20;;;;;;;;;;4978533;28;20195;-80
2021/05/20 09:15:15;;;;;;;29.63;23.80;;;;;;;;;;5020507;28;20690;-79
2021/05/20 09:17:41;;;;;;;29.70;22.37;;;;;;;;;;4990553;28;20521;-79
2021/05/20 09:20:08;;;;;;;30.70;21.83;;;;;;;;;;4971579;28;20275;-80
2021/05/20 09:22:35;;;;;;;30.40;22.90;;;;;;;;;;4972703;28;20172;-79
2021/05/20 09:25:02;;;;;;;28.90;23.60;;;;;;;;;;4972175;28;20207;-82
2021/05/20 09:27:28;;;;;;;28.87;22.40;;;;;;;;;;4975107;28;20580;-82
2021/05/20 09:30:12;;;;;;;28.73;22.33;;;;;;;;;;4980080;28;20285;-82
2021/05/20 09:32:40;;;;;;;29.20;22.50;;;;;;;;;;4978829;28;20172;-82
2021/05/20 09:35:07;;;;;;;31.47;23.77;;;;;;;;;;4972189;28;20195;-82
2021/05/20 09:37:34;;;;;;;28.80;23.13;;;;;;;;;;4971358;28;20180;-82
2021/05/20 09:40:04;;;;;;;29.20;22.00;;;;;;;;;;4970752;28;20314;-82
2021/05/20 09:42:31;;;;;;;27.73;22.57;;;;;;;;;;4972249;28;20172;-82
2021/05/20 09:45:10;;;;;;;25.73;21.43;;;;;;;;;;4973897;28;20210;-82
2021/05/20 09:47:37;;;;;;;24.67;20.57;;;;;;;;;;4971897;28;20180;-82
2021/05/20 09:50:07;;;;;;;24.10;19.67;;;;;;;;;;4975407;28;20276;-82
2021/05/20 09:52:33;;;;;;;25.93;20.13;;;;;;;;;;4991652;28;20190;-82
2021/05/20 09:55:00;;;;;;;23.33;18.80;;;;;;;;;;4984869;28;20183;-82
2021/05/20 09:57:26;;;;;;;23.57;19.50;;;;;;;;;;4971740;28;20184;-82
2021/05/20 10:00:04;;;;;;;23.97;19.83;;;;;;;;;;4973795;28;20618;-82
2021/05/20 10:02:31;;;;;;;23.87;19.33;;;;;;;;;;4973284;28;20213;-82
2021/05/20 10:04:57;;;;;;;21.30;18.63;;;;;;;;;;4972828;28;20180;-82
2021/05/20 10:07:30;;;;;;;20.13;17.17;;;;;;;;;;4973977;28;20183;-83
2021/05/20 10:09:56;;;;;;;19.37;17.33;;;;;;;;;;4970055;28;20281;-77
2021/05/20 10:12:23;;;;;;;23.03;17.77;;;;;;;;;;4965856;28;20611;-76
2021/05/20 10:14:50;;;;;;;20.83;17.23;;;;;;;;;;4950520;28;20780;-77
2021/05/20 10:17:19;;;;;;;20.40;16.00;;;;;;;;;;4969350;28;20706;-76
2021/05/20 10:19:46;;;;;;;19.03;15.87;;;;;;;;;;4968940;28;20192;-76
2021/05/20 10:22:13;;;;;;;20.60;16.87;;;;;;;;;;4961817;28;20188;-76
2021/05/20 10:24:40;;;;;;;18.07;15.60;;;;;;;;;;4975992;28;20227;-77
2021/05/20 10:27:07;;;;;;;17.90;15.43;;;;;;;;;;4979129;28;20733;-78
2021/05/20 10:29:33;;;;;;;18.17;15.13;;;;;;;;;;4970048;28;20214;-77
2021/05/20 10:31:59;;;;;;;18.50;14.47;;;;;;;;;;4969097;28;20496;-77
2021/05/20 10:34:25;;;;;;;17.23;14.47;;;;;;;;;;4968878;28;20658;-78
2021/05/20 10:37:05;;;;;;;18.13;15.33;;;;;;;;;;4969075;28;20202;-77
2021/05/20 10:39:32;;;;;;;15.47;13.87;;;;;;;;;;4951871;28;20203;-78
2021/05/20 10:41:58;;;;;;;18.50;15.37;;;;;;;;;;4969606;28;20227;-77
2021/05/20 10:44:25;;;;;;;16.07;14.37;;;;;;;;;;4973334;28;20282;-77
2021/05/20 10:46:58;;;;;;;15.40;12.93;;;;;;;;;;4961935;28;20188;-77
2021/05/20 10:49:43;;;;;;;15.27;13.73;;;;;;;;;;5000129;28;20213;-79
2021/05/20 10:52:27;;;;;;;15.07;12.67;;;;;;;;;;4971149;28;20299;-78
2021/05/20 10:55:01;;;;;;;12.27;10.73;;;;;;;;;;4971443;28;20190;-78
2021/05/20 10:57:45;;;;;;;11.77;10.57;;;;;;;;;;4984476;28;20467;-78
2021/05/20 11:00:41;;;;;;;13.10;11.80;;;;;;;;;;4960928;28;20219;-81
2021/05/20 11:03:08;;;;;;;12.77;11.40;;;;;;;;;;4995796;28;20216;-80
2021/05/20 11:05:43;;;;;;;11.77;10.60;;;;;;;;;;4972449;28;20702;-81
2021/05/20 11:08:29;;;;;;;9.67;8.67;;;;;;;;;;4975723;28;20225;-82
2021/05/20 11:10:55;;;;;;;9.43;8.33;;;;;;;;;;4991260;28;20180;-80
2021/05/20 11:13:41;;;;;;;9.27;8.37;;;;;;;;;;4966007;28;20176;-80
2021/05/20 11:16:14;;;;;;;10.03;8.97;;;;;;;;;;4963548;28;20267;-79
2021/05/20 11:18:40;;;;;;;8.47;7.67;;;;;;;;;;4969148;28;20194;-79
2021/05/20 11:21:06;;;;;;;9.03;8.13;;;;;;;;;;4982534;28;20234;-79
2021/05/20 11:23:34;;;;;;;10.43;9.23;;;;;;;;;;4976930;28;20205;-79
2021/05/20 11:26:04;;;;;;;8.73;7.77;;;;;;;;;;4969421;28;20216;-79
2021/05/20 11:28:37;;;;;;;9.17;7.37;;;;;;;;;;4965606;28;20543;-79
2021/05/20 11:31:04;;;;;;;9.80;8.67;;;;;;;;;;4976495;28;20175;-78
2021/05/20 11:33:35;;;;;;;9.63;8.07;;;;;;;;;;4964171;28;20182;-79
2021/05/20 11:38:28;;;;;;;8.67;7.87;;;;;;;;;;4970462;28;20271;-78
2021/05/20 11:40:55;;;;;;;8.90;8.00;;;;;;;;;;4975763;28;20295;-79
2021/05/20 11:43:28;;;;;;;8.50;7.70;;;;;;;;;;4969901;28;20199;-78
2021/05/20 11:45:55;;;;;;;10.10;8.00;;;;;;;;;;4971403;28;20564;-78
2021/05/20 11:48:21;;;;;;;7.90;7.07;;;;;;;;;;4971777;28;20180;-79
2021/05/20 11:50:54;;;;;;;8.48;7.25;;;;;;;;;;4970768;28;20752;-78
2021/05/20 11:53:20;;;;;;;7.73;6.93;;;;;;;;;;4969664;28;20501;-79
2021/05/20 11:55:47;;;;;;;11.57;7.77;;;;;;;;;;4962348;28;20180;-79
2021/05/20 11:58:16;;;;;;;8.20;7.20;;;;;;;;;;4965572;28;20633;-78
2021/05/20 12:00:43;;;;;;;6.87;6.03;;;;;;;;;;4975791;28;20613;-78
2021/05/20 12:03:09;;;;;;;6.97;6.27;;;;;;;;;;4962660;28;20217;-78
2021/05/20 12:05:36;;;;;;;7.53;6.50;;;;;;;;;;4969033;28;20259;-78
2021/05/20 12:08:02;;;;;;;6.13;5.53;;;;;;;;;;4967159;28;20305;-78
2021/05/20 12:10:28;;;;;;;5.67;4.30;;;;;;;;;;4966150;28;20511;-79
2021/05/20 12:12:56;;;;;;;4.57;4.17;;;;;;;;;;4969950;28;20208;-78
2021/05/20 12:15:23;;;;;;;4.97;4.33;;;;;;;;;;4968272;28;20248;-77
2021/05/20 12:17:51;;;;;;;4.70;4.30;;;;;;;;;;4971144;28;20278;-78
2021/05/20 12:20:19;;;;;;;5.07;4.57;;;;;;;;;;4971928;28;20634;-77
2021/05/20 12:22:46;;;;;;;4.73;4.20;;;;;;;;;;4962275;28;20675;-78
2021/05/20 12:25:13;;;;;;;5.67;5.07;;;;;;;;;;4953987;28;20181;-78
2021/05/20 12:27:40;;;;;;;5.80;5.30;;;;;;;;;;4969150;28;20265;-78
2021/05/20 12:30:10;;;;;;;6.28;5.68;;;;;;;;;;4969884;28;20478;-78
2021/05/20 12:32:40;;;;;;;6.33;5.73;;;;;;;;;;4970544;28;20251;-79
2021/05/20 12:35:13;;;;;;;12.10;6.33;;;;;;;;;;4970849;28;20188;-80
2021/05/20 12:38:01;;;;;;;5.10;4.60;;;;;;;;;;4969790;28;20270;-80
2021/05/20 12:40:29;;;;;;;3.97;3.57;;;;;;;;;;4972059;28;20211;-80
2021/05/20 12:43:04;;;;;;;4.87;3.43;;;;;;;;;;4995768;28;20172;-78
2021/05/20 12:45:31;;;;;;;4.30;3.90;;;;;;;;;;4992569;28;20632;-78
2021/05/20 12:47:57;;;;;;;4.97;3.57;;;;;;;;;;4970716;28;20707;-78
2021/05/20 12:50:34;;;;;;;5.33;4.53;;;;;;;;;;4982949;28;20559;-78
2021/05/20 12:53:01;;;;;;;4.50;4.10;;;;;;;;;;4983441;28;20660;-79
2021/05/20 12:55:35;;;;;;;5.00;4.50;;;;;;;;;;4980846;28;20197;-78
2021/05/20 12:58:01;;;;;;;3.93;3.60;;;;;;;;;;4968342;28;20237;-77
2021/05/20 13:00:28;;;;;;;4.73;4.33;;;;;;;;;;4969026;28;20214;-76
2021/05/20 13:02:58;;;;;;;4.83;4.00;;;;;;;;;;4968350;28;20704;-77
2021/05/20 13:05:24;;;;;;;4.60;3.47;;;;;;;;;;4966833;28;20183;-78
2021/05/20 13:07:50;;;;;;;4.07;3.37;;;;;;;;;;4968068;28;20263;-76
2021/05/20 13:10:35;;;;;;;4.17;3.60;;;;;;;;;;4968139;28;20195;-77
2021/05/20 13:13:02;;;;;;;4.80;4.40;;;;;;;;;;4967727;28;20206;-77
2021/05/20 13:15:45;;;;;;;4.07;3.60;;;;;;;;;;4967936;28;20299;-77
2021/05/20 13:19:14;;;;;;;3.97;2.93;;;;;;;;;;4969549;28;20213;-76
2021/05/20 13:23:41;;;;;;;4.27;3.30;;;;;;;;;;4966485;28;20177;-77
2021/05/20 13:26:07;;;;;;;3.60;3.30;;;;;;;;;;4961924;28;20177;-78
2021/05/20 13:28:33;;;;;;;4.97;3.67;;;;;;;;;;4955717;28;20187;-77
2021/05/20 13:31:03;;;;;;;4.57;3.60;;;;;;;;;;4959956;28;20188;-77
2021/05/20 13:33:34;;;;;;;4.27;3.73;;;;;;;;;;4967387;28;20221;-79
2021/05/20 13:36:03;;;;;;;4.40;3.77;;;;;;;;;;4963044;28;20188;-77
2021/05/20 13:38:29;;;;;;;5.23;3.83;;;;;;;;;;4966998;28;20247;-77
2021/05/20 13:40:57;;;;;;;3.73;3.40;;;;;;;;;;4969676;28;20235;-77
2021/05/20 13:43:23;;;;;;;5.00;3.00;;;;;;;;;;4969718;28;20255;-77
2021/05/20 13:45:50;;;;;;;3.53;2.97;;;;;;;;;;4966282;28;20588;-77
2021/05/20 13:48:16;;;;;;;5.13;4.10;;;;;;;;;;4959440;28;20180;-78
2021/05/20 13:50:46;;;;;;;4.40;2.70;;;;;;;;;;4972591;28;20180;-78
2021/05/20 13:53:12;;;;;;;3.40;3.10;;;;;;;;;;5027899;28;20177;-77
2021/05/20 13:55:40;;;;;;;3.03;2.73;;;;;;;;;;4979302;28;20259;-77
2021/05/20 13:58:09;;;;;;;3.13;1.97;;;;;;;;;;5003441;28;20560;-78
2021/05/20 14:00:36;;;;;;;2.80;2.60;;;;;;;;;;4970643;28;20208;-78
2021/05/20 14:03:03;;;;;;;4.53;3.20;;;;;;;;;;4999216;28;20268;-78
2021/05/20 14:05:30;;;;;;;4.10;2.70;;;;;;;;;;5002840;28;20180;-78
2021/05/20 14:07:56;;;;;;;2.57;2.17;;;;;;;;;;4979526;28;20197;-78
2021/05/20 14:10:23;;;;;;;2.43;2.07;;;;;;;;;;4969293;28;20184;-77
2021/05/20 14:12:49;;;;;;;2.33;1.97;;;;;;;;;;5038835;28;20582;-78
2021/05/20 14:15:15;;;;;;;3.37;2.50;;;;;;;;;;4972940;28;20224;-77
2021/05/20 14:17:44;;;;;;;2.20;2.00;;;;;;;;;;4969162;28;20570;-77
2021/05/20 14:20:12;;;;;;;3.37;2.33;;;;;;;;;;4969774;28;20231;-77
2021/05/20 14:22:38;;;;;;;3.05;2.60;;;;;;;;;;4966472;28;20437;-77
2021/05/20 14:25:05;;;;;;;2.80;2.30;;;;;;;;;;4983692;28;20642;-77
2021/05/20 14:27:31;;;;;;;3.70;2.60;;;;;;;;;;4986009;28;20309;-78
2021/05/20 14:29:58;;;;;;;2.93;2.40;;;;;;;;;;4970009;28;20523;-78
2021/05/20 14:32:25;;;;;;;2.50;2.30;;;;;;;;;;5000332;28;20230;-78
2021/05/20 14:34:52;;;;;;;4.87;2.57;;;;;;;;;;5025957;28;20195;-78
2021/05/20 14:37:20;;;;;;;6.13;2.27;;;;;;;;;;4972140;28;20176;-77
2021/05/20 14:39:47;;;;;;;3.43;2.63;;;;;;;;;;5018802;28;20184;-77
2021/05/20 14:42:13;;;;;;;3.90;2.47;;;;;;;;;;4982669;28;20289;-77
2021/05/20 14:44:39;;;;;;;3.90;2.43;;;;;;;;;;5069634;28;20576;-78